Portlandville, New York
Current Conditions -  °F | °C
As of 6:55 PM on Monday 20 Oct 2014 (Local Time) from KNY0 Reporting Station
Overcast Overcast  
Wind Chill: 46°   Ceiling: 7500
Heat Index: 46°   Visibility: 10mi
Dew Point: 36°   Wind: 3mph
Humidity: 68%   Direction: 120°ESE
Pressure: 29.92"   Gusts: NA
Location:  42.53°N, 74.97°W
Report Text: KNY0 202255Z AUTO 12003KT 10SM BKN075 OVC100 08/02 A2992 RMK AO2 T00760020
Loading
Personal Weather Stations






























Interactive Weather Map
Tropical Storm Tracking
New forecast layout! Learn more

10-Day Weather Forecast

Advertisements
Track Severe Weather on mobile